sensor_id;sensor_type;location;lat;lon;timestamp;temperature;humidity
48860;DHT22;34679;51.436;-2.518;2023-07-22T00:01:25;14.90;99.90
48860;DHT22;34679;51.436;-2.518;2023-07-22T00:03:51;14.90;99.90
48860;DHT22;34679;51.436;-2.518;2023-07-22T00:06:16;14.80;99.90
48860;DHT22;34679;51.436;-2.518;2023-07-22T00:08:42;14.90;99.90
48860;DHT22;34679;51.436;-2.518;2023-07-22T00:11:08;14.80;99.90
48860;DHT22;34679;51.436;-2.518;2023-07-22T00:13:34;14.80;99.90
48860;DHT22;34679;51.436;-2.518;2023-07-22T00:16:00;14.90;99.90
48860;DHT22;34679;51.436;-2.518;2023-07-22T00:18:27;14.80;99.90
48860;DHT22;34679;51.436;-2.518;2023-07-22T00:20:54;14.80;99.90
48860;DHT22;34679;51.436;-2.518;2023-07-22T00:23:19;14.80;99.90
48860;DHT22;34679;51.436;-2.518;2023-07-22T00:25:46;14.80;99.90
48860;DHT22;34679;51.436;-2.518;2023-07-22T00:28:12;14.80;99.90
48860;DHT22;34679;51.436;-2.518;2023-07-22T00:30:38;14.80;99.90
48860;DHT22;34679;51.436;-2.518;2023-07-22T00:33:04;14.80;99.90
48860;DHT22;34679;51.436;-2.518;2023-07-22T00:35:31;14.80;99.90
48860;DHT22;34679;51.436;-2.518;2023-07-22T00:37:57;14.80;99.90
48860;DHT22;34679;51.436;-2.518;2023-07-22T00:40:23;14.80;99.90
48860;DHT22;34679;51.436;-2.518;2023-07-22T00:42:49;14.70;99.90
48860;DHT22;34679;51.436;-2.518;2023-07-22T00:45:15;14.70;99.90
48860;DHT22;34679;51.436;-2.518;2023-07-22T00:47:41;14.70;99.90
48860;DHT22;34679;51.436;-2.518;2023-07-22T00:50:07;14.60;99.90
48860;DHT22;34679;51.436;-2.518;2023-07-22T00:52:34;14.60;99.90
48860;DHT22;34679;51.436;-2.518;2023-07-22T00:55:00;14.50;99.90
48860;DHT22;34679;51.436;-2.518;2023-07-22T00:57:26;14.50;99.90
48860;DHT22;34679;51.436;-2.518;2023-07-22T00:59:52;14.50;99.90
48860;DHT22;34679;51.436;-2.518;2023-07-22T01:02:18;14.40;99.90
48860;DHT22;34679;51.436;-2.518;2023-07-22T01:04:45;14.40;99.90
48860;DHT22;34679;51.436;-2.518;2023-07-22T01:07:11;14.40;99.90
48860;DHT22;34679;51.436;-2.518;2023-07-22T01:09:38;14.40;99.90
48860;DHT22;34679;51.436;-2.518;2023-07-22T01:12:05;14.40;99.90
48860;DHT22;34679;51.436;-2.518;2023-07-22T01:14:35;14.40;99.90
48860;DHT22;34679;51.436;-2.518;2023-07-22T01:17:05;14.30;99.90
48860;DHT22;34679;51.436;-2.518;2023-07-22T01:19:32;14.30;99.90
48860;DHT22;34679;51.436;-2.518;2023-07-22T01:22:00;14.40;99.90
48860;DHT22;34679;51.436;-2.518;2023-07-22T01:24:27;14.30;99.90
48860;DHT22;34679;51.436;-2.518;2023-07-22T01:26:52;14.30;99.90
48860;DHT22;34679;51.436;-2.518;2023-07-22T01:29:18;14.30;99.90
48860;DHT22;34679;51.436;-2.518;2023-07-22T01:31:47;14.30;99.90
48860;DHT22;34679;51.436;-2.518;2023-07-22T01:34:13;14.30;99.90
48860;DHT22;34679;51.436;-2.518;2023-07-22T01:36:39;14.30;99.90
48860;DHT22;34679;51.436;-2.518;2023-07-22T01:39:05;14.30;99.90
48860;DHT22;34679;51.436;-2.518;2023-07-22T01:41:34;14.30;99.90
48860;DHT22;34679;51.436;-2.518;2023-07-22T01:43:59;14.30;99.90
48860;DHT22;34679;51.436;-2.518;2023-07-22T01:46:25;14.20;99.90
48860;DHT22;34679;51.436;-2.518;2023-07-22T01:48:51;14.20;99.90
48860;DHT22;34679;51.436;-2.518;2023-07-22T01:51:17;14.20;99.90
48860;DHT22;34679;51.436;-2.518;2023-07-22T01:53:42;14.20;99.90
48860;DHT22;34679;51.436;-2.518;2023-07-22T01:56:08;14.20;99.90
48860;DHT22;34679;51.436;-2.518;2023-07-22T01:58:34;14.20;99.90
48860;DHT22;34679;51.436;-2.518;2023-07-22T02:01:00;14.10;99.90
48860;DHT22;34679;51.436;-2.518;2023-07-22T02:03:26;14.10;99.90
48860;DHT22;34679;51.436;-2.518;2023-07-22T02:05:52;14.10;99.90
48860;DHT22;34679;51.436;-2.518;2023-07-22T02:08:17;14.10;99.90
48860;DHT22;34679;51.436;-2.518;2023-07-22T02:10:43;14.10;99.90
48860;DHT22;34679;51.436;-2.518;2023-07-22T02:13:09;14.10;99.90
48860;DHT22;34679;51.436;-2.518;2023-07-22T02:15:35;14.10;99.90
48860;DHT22;34679;51.436;-2.518;2023-07-22T02:18:01;14.00;99.90
48860;DHT22;34679;51.436;-2.518;2023-07-22T02:20:26;14.00;99.90
48860;DHT22;34679;51.436;-2.518;2023-07-22T02:22:54;14.00;99.90
48860;DHT22;34679;51.436;-2.518;2023-07-22T02:25:20;14.00;99.90
48860;DHT22;34679;51.436;-2.518;2023-07-22T02:27:46;14.00;99.90
48860;DHT22;34679;51.436;-2.518;2023-07-22T02:30:13;14.00;99.90
48860;DHT22;34679;51.436;-2.518;2023-07-22T02:32:39;14.00;99.90
48860;DHT22;34679;51.436;-2.518;2023-07-22T02:35:06;14.00;99.90
48860;DHT22;34679;51.436;-2.518;2023-07-22T02:37:33;14.00;99.90
48860;DHT22;34679;51.436;-2.518;2023-07-22T02:39:58;13.90;99.90
48860;DHT22;34679;51.436;-2.518;2023-07-22T02:42:24;14.00;99.90
48860;DHT22;34679;51.436;-2.518;2023-07-22T02:44:50;14.00;99.90
48860;DHT22;34679;51.436;-2.518;2023-07-22T02:47:15;13.90;99.90
48860;DHT22;34679;51.436;-2.518;2023-07-22T02:49:41;14.00;99.90
48860;DHT22;34679;51.436;-2.518;2023-07-22T02:52:07;13.90;99.90
48860;DHT22;34679;51.436;-2.518;2023-07-22T02:54:40;13.90;99.90
48860;DHT22;34679;51.436;-2.518;2023-07-22T02:57:06;13.90;99.90
48860;DHT22;34679;51.436;-2.518;2023-07-22T02:59:32;13.90;99.90
48860;DHT22;34679;51.436;-2.518;2023-07-22T03:01:58;13.90;99.90
48860;DHT22;34679;51.436;-2.518;2023-07-22T03:04:24;13.90;99.90
48860;DHT22;34679;51.436;-2.518;2023-07-22T03:06:50;13.90;99.90
48860;DHT22;34679;51.436;-2.518;2023-07-22T03:09:15;13.80;99.90
48860;DHT22;34679;51.436;-2.518;2023-07-22T03:11:41;13.80;99.90
48860;DHT22;34679;51.436;-2.518;2023-07-22T03:14:06;13.70;99.90
48860;DHT22;34679;51.436;-2.518;2023-07-22T03:16:32;13.70;99.90
48860;DHT22;34679;51.436;-2.518;2023-07-22T03:18:58;13.70;99.90
48860;DHT22;34679;51.436;-2.518;2023-07-22T03:21:23;13.60;99.90
48860;DHT22;34679;51.436;-2.518;2023-07-22T03:23:49;13.60;99.90
48860;DHT22;34679;51.436;-2.518;2023-07-22T03:26:15;13.60;99.90
48860;DHT22;34679;51.436;-2.518;2023-07-22T03:28:41;13.60;99.90
48860;DHT22;34679;51.436;-2.518;2023-07-22T03:31:07;13.60;99.90
48860;DHT22;34679;51.436;-2.518;2023-07-22T03:33:34;13.60;99.90
48860;DHT22;34679;51.436;-2.518;2023-07-22T03:36:00;13.60;99.90
48860;DHT22;34679;51.436;-2.518;2023-07-22T03:38:26;13.70;99.90
48860;DHT22;34679;51.436;-2.518;2023-07-22T03:40:52;13.60;99.90
48860;DHT22;34679;51.436;-2.518;2023-07-22T03:43:20;13.60;99.90
48860;DHT22;34679;51.436;-2.518;2023-07-22T03:45:46;13.60;99.90
48860;DHT22;34679;51.436;-2.518;2023-07-22T03:48:11;13.60;99.90
48860;DHT22;34679;51.436;-2.518;2023-07-22T03:50:37;13.60;99.90
48860;DHT22;34679;51.436;-2.518;2023-07-22T03:53:03;13.60;99.90
48860;DHT22;34679;51.436;-2.518;2023-07-22T03:55:28;13.60;99.90
48860;DHT22;34679;51.436;-2.518;2023-07-22T03:57:54;13.60;99.90
48860;DHT22;34679;51.436;-2.518;2023-07-22T04:00:21;13.60;99.90
48860;DHT22;34679;51.436;-2.518;2023-07-22T04:02:47;13.60;99.90
48860;DHT22;34679;51.436;-2.518;2023-07-22T04:05:13;13.70;99.90
48860;DHT22;34679;51.436;-2.518;2023-07-22T04:07:38;13.60;99.90
48860;DHT22;34679;51.436;-2.518;2023-07-22T04:10:05;13.70;99.90
48860;DHT22;34679;51.436;-2.518;2023-07-22T04:12:31;13.60;99.90
48860;DHT22;34679;51.436;-2.518;2023-07-22T04:14:57;13.70;99.90
48860;DHT22;34679;51.436;-2.518;2023-07-22T04:17:23;13.70;99.90
48860;DHT22;34679;51.436;-2.518;2023-07-22T04:19:51;13.70;99.90
48860;DHT22;34679;51.436;-2.518;2023-07-22T04:22:17;13.70;99.90
48860;DHT22;34679;51.436;-2.518;2023-07-22T04:24:42;13.70;99.90
48860;DHT22;34679;51.436;-2.518;2023-07-22T04:27:08;13.70;99.90
48860;DHT22;34679;51.436;-2.518;2023-07-22T04:29:35;13.70;99.90
48860;DHT22;34679;51.436;-2.518;2023-07-22T04:32:01;13.70;99.90
48860;DHT22;34679;51.436;-2.518;2023-07-22T04:34:31;13.70;99.90
48860;DHT22;34679;51.436;-2.518;2023-07-22T04:36:57;13.70;99.90
48860;DHT22;34679;51.436;-2.518;2023-07-22T04:39:23;13.70;99.90
48860;DHT22;34679;51.436;-2.518;2023-07-22T04:41:49;13.70;99.90
48860;DHT22;34679;51.436;-2.518;2023-07-22T04:44:16;13.70;99.90
48860;DHT22;34679;51.436;-2.518;2023-07-22T04:46:42;13.70;99.90
48860;DHT22;34679;51.436;-2.518;2023-07-22T04:49:08;13.70;99.90
48860;DHT22;34679;51.436;-2.518;2023-07-22T04:51:34;13.80;99.90
48860;DHT22;34679;51.436;-2.518;2023-07-22T04:53:59;13.80;99.90
48860;DHT22;34679;51.436;-2.518;2023-07-22T04:56:25;13.80;99.90
48860;DHT22;34679;51.436;-2.518;2023-07-22T04:58:51;13.80;99.90
48860;DHT22;34679;51.436;-2.518;2023-07-22T05:01:16;13.80;99.90
48860;DHT22;34679;51.436;-2.518;2023-07-22T05:03:42;13.80;99.90
48860;DHT22;34679;51.436;-2.518;2023-07-22T05:06:08;13.80;99.90
48860;DHT22;34679;51.436;-2.518;2023-07-22T05:08:34;13.80;99.90
48860;DHT22;34679;51.436;-2.518;2023-07-22T05:11:00;13.90;99.90
48860;DHT22;34679;51.436;-2.518;2023-07-22T05:13:26;13.80;99.90
48860;DHT22;34679;51.436;-2.518;2023-07-22T05:15:51;13.80;99.90
48860;DHT22;34679;51.436;-2.518;2023-07-22T05:18:17;13.90;99.90
48860;DHT22;34679;51.436;-2.518;2023-07-22T05:20:43;13.90;99.90
48860;DHT22;34679;51.436;-2.518;2023-07-22T05:23:08;14.00;99.90
48860;DHT22;34679;51.436;-2.518;2023-07-22T05:25:34;13.90;99.90
48860;DHT22;34679;51.436;-2.518;2023-07-22T05:28:00;14.00;99.90
48860;DHT22;34679;51.436;-2.518;2023-07-22T05:30:25;14.00;99.90
48860;DHT22;34679;51.436;-2.518;2023-07-22T05:32:54;14.10;99.90
48860;DHT22;34679;51.436;-2.518;2023-07-22T05:35:20;14.10;99.90
48860;DHT22;34679;51.436;-2.518;2023-07-22T05:37:45;14.10;99.90
48860;DHT22;34679;51.436;-2.518;2023-07-22T05:40:11;14.20;99.90
48860;DHT22;34679;51.436;-2.518;2023-07-22T05:42:37;14.20;99.90
48860;DHT22;34679;51.436;-2.518;2023-07-22T05:45:03;14.20;99.90
48860;DHT22;34679;51.436;-2.518;2023-07-22T05:47:29;14.30;99.90
48860;DHT22;34679;51.436;-2.518;2023-07-22T05:49:55;14.40;99.90
48860;DHT22;34679;51.436;-2.518;2023-07-22T05:52:20;14.50;99.90
48860;DHT22;34679;51.436;-2.518;2023-07-22T05:54:46;14.50;99.90
48860;DHT22;34679;51.436;-2.518;2023-07-22T05:57:12;14.60;99.90
48860;DHT22;34679;51.436;-2.518;2023-07-22T05:59:37;14.70;99.90
48860;DHT22;34679;51.436;-2.518;2023-07-22T06:02:05;14.70;99.90
48860;DHT22;34679;51.436;-2.518;2023-07-22T06:04:31;14.80;99.90
48860;DHT22;34679;51.436;-2.518;2023-07-22T06:06:57;14.80;99.90
48860;DHT22;34679;51.436;-2.518;2023-07-22T06:09:23;14.90;99.90
48860;DHT22;34679;51.436;-2.518;2023-07-22T06:11:48;15.00;99.90
48860;DHT22;34679;51.436;-2.518;2023-07-22T06:14:14;15.10;99.90
48860;DHT22;34679;51.436;-2.518;2023-07-22T06:16:40;15.20;99.90
48860;DHT22;34679;51.436;-2.518;2023-07-22T06:19:05;15.20;99.90
48860;DHT22;34679;51.436;-2.518;2023-07-22T06:21:31;15.30;99.90
48860;DHT22;34679;51.436;-2.518;2023-07-22T06:23:57;15.40;99.90
48860;DHT22;34679;51.436;-2.518;2023-07-22T06:26:22;15.40;99.90
48860;DHT22;34679;51.436;-2.518;2023-07-22T06:28:48;15.50;99.90
48860;DHT22;34679;51.436;-2.518;2023-07-22T06:31:14;15.50;99.90
48860;DHT22;34679;51.436;-2.518;2023-07-22T06:33:40;15.50;99.90
48860;DHT22;34679;51.436;-2.518;2023-07-22T06:36:05;15.50;99.90
48860;DHT22;34679;51.436;-2.518;2023-07-22T06:38:31;15.50;99.90
48860;DHT22;34679;51.436;-2.518;2023-07-22T06:40:57;15.60;99.90
48860;DHT22;34679;51.436;-2.518;2023-07-22T06:43:24;15.60;99.90
48860;DHT22;34679;51.436;-2.518;2023-07-22T06:45:49;15.70;99.90
48860;DHT22;34679;51.436;-2.518;2023-07-22T06:48:15;15.80;99.90
48860;DHT22;34679;51.436;-2.518;2023-07-22T06:50:47;16.00;99.90
48860;DHT22;34679;51.436;-2.518;2023-07-22T06:53:13;16.00;99.90
48860;DHT22;34679;51.436;-2.518;2023-07-22T06:55:47;16.10;99.90
48860;DHT22;34679;51.436;-2.518;2023-07-22T06:58:13;16.10;99.90
48860;DHT22;34679;51.436;-2.518;2023-07-22T07:00:39;16.20;99.90
48860;DHT22;34679;51.436;-2.518;2023-07-22T07:03:04;16.10;99.90
48860;DHT22;34679;51.436;-2.518;2023-07-22T07:05:30;16.10;99.90
48860;DHT22;34679;51.436;-2.518;2023-07-22T07:07:56;16.20;99.90
48860;DHT22;34679;51.436;-2.518;2023-07-22T07:10:21;16.00;99.90
48860;DHT22;34679;51.436;-2.518;2023-07-22T07:12:47;16.00;99.90
48860;DHT22;34679;51.436;-2.518;2023-07-22T07:15:13;16.00;99.90
48860;DHT22;34679;51.436;-2.518;2023-07-22T07:17:38;16.00;99.90
48860;DHT22;34679;51.436;-2.518;2023-07-22T07:20:04;15.90;99.90
48860;DHT22;34679;51.436;-2.518;2023-07-22T07:22:30;15.80;99.90
48860;DHT22;34679;51.436;-2.518;2023-07-22T07:24:56;15.90;99.90
48860;DHT22;34679;51.436;-2.518;2023-07-22T07:27:22;16.00;99.90
48860;DHT22;34679;51.436;-2.518;2023-07-22T07:29:47;16.00;99.90
48860;DHT22;34679;51.436;-2.518;2023-07-22T07:32:13;16.10;99.90
48860;DHT22;34679;51.436;-2.518;2023-07-22T07:34:39;16.10;99.90
48860;DHT22;34679;51.436;-2.518;2023-07-22T07:37:05;16.10;99.90
48860;DHT22;34679;51.436;-2.518;2023-07-22T07:39:31;16.20;99.90
48860;DHT22;34679;51.436;-2.518;2023-07-22T07:41:56;16.30;99.90
48860;DHT22;34679;51.436;-2.518;2023-07-22T07:44:22;16.40;99.90
48860;DHT22;34679;51.436;-2.518;2023-07-22T07:46:48;16.50;99.90
48860;DHT22;34679;51.436;-2.518;2023-07-22T07:49:15;16.60;99.90
48860;DHT22;34679;51.436;-2.518;2023-07-22T07:51:41;16.50;99.90
48860;DHT22;34679;51.436;-2.518;2023-07-22T07:54:08;16.40;99.90
48860;DHT22;34679;51.436;-2.518;2023-07-22T07:56:34;16.40;99.90
48860;DHT22;34679;51.436;-2.518;2023-07-22T07:58:59;16.30;99.90
48860;DHT22;34679;51.436;-2.518;2023-07-22T08:01:25;16.30;99.90
48860;DHT22;34679;51.436;-2.518;2023-07-22T08:03:51;16.30;99.90
48860;DHT22;34679;51.436;-2.518;2023-07-22T08:06:17;16.30;99.90
48860;DHT22;34679;51.436;-2.518;2023-07-22T08:08:42;16.30;99.90
48860;DHT22;34679;51.436;-2.518;2023-07-22T08:11:13;16.30;99.90
48860;DHT22;34679;51.436;-2.518;2023-07-22T08:13:40;16.30;99.90
48860;DHT22;34679;51.436;-2.518;2023-07-22T08:16:08;16.30;99.90
48860;DHT22;34679;51.436;-2.518;2023-07-22T08:18:35;16.30;99.90
48860;DHT22;34679;51.436;-2.518;2023-07-22T08:21:02;16.20;99.90
48860;DHT22;34679;51.436;-2.518;2023-07-22T08:23:28;16.10;99.90
48860;DHT22;34679;51.436;-2.518;2023-07-22T08:25:54;16.00;99.90
48860;DHT22;34679;51.436;-2.518;2023-07-22T08:28:20;16.00;99.90
48860;DHT22;34679;51.436;-2.518;2023-07-22T08:30:47;15.90;99.90
48860;DHT22;34679;51.436;-2.518;2023-07-22T08:33:14;15.90;99.90
48860;DHT22;34679;51.436;-2.518;2023-07-22T08:35:40;15.90;99.90
48860;DHT22;34679;51.436;-2.518;2023-07-22T08:38:06;15.90;99.90
48860;DHT22;34679;51.436;-2.518;2023-07-22T08:40:37;15.90;99.90
48860;DHT22;34679;51.436;-2.518;2023-07-22T08:43:05;15.80;99.90
48860;DHT22;34679;51.436;-2.518;2023-07-22T08:45:32;15.80;99.90
48860;DHT22;34679;51.436;-2.518;2023-07-22T08:47:58;15.80;99.90
48860;DHT22;34679;51.436;-2.518;2023-07-22T08:50:29;15.70;99.90
48860;DHT22;34679;51.436;-2.518;2023-07-22T08:52:57;15.60;99.90
48860;DHT22;34679;51.436;-2.518;2023-07-22T08:55:23;15.60;99.90
48860;DHT22;34679;51.436;-2.518;2023-07-22T08:57:50;15.60;99.90
48860;DHT22;34679;51.436;-2.518;2023-07-22T09:00:16;15.60;99.90
48860;DHT22;34679;51.436;-2.518;2023-07-22T09:02:42;15.50;99.90
48860;DHT22;34679;51.436;-2.518;2023-07-22T09:05:08;15.50;99.90
48860;DHT22;34679;51.436;-2.518;2023-07-22T09:07:37;15.50;99.90
48860;DHT22;34679;51.436;-2.518;2023-07-22T09:10:08;15.50;99.90
48860;DHT22;34679;51.436;-2.518;2023-07-22T09:12:35;15.60;99.90
48860;DHT22;34679;51.436;-2.518;2023-07-22T09:15:12;15.60;99.90
48860;DHT22;34679;51.436;-2.518;2023-07-22T09:17:38;15.60;99.90
48860;DHT22;34679;51.436;-2.518;2023-07-22T09:20:05;15.60;99.90
48860;DHT22;34679;51.436;-2.518;2023-07-22T09:22:32;15.70;99.90
48860;DHT22;34679;51.436;-2.518;2023-07-22T09:25:20;15.70;99.90
48860;DHT22;34679;51.436;-2.518;2023-07-22T09:27:58;15.70;99.90
48860;DHT22;34679;51.436;-2.518;2023-07-22T09:32:53;15.80;99.90
48860;DHT22;34679;51.436;-2.518;2023-07-22T09:35:19;15.70;99.90
48860;DHT22;34679;51.436;-2.518;2023-07-22T09:37:45;15.70;99.90
48860;DHT22;34679;51.436;-2.518;2023-07-22T09:40:25;15.80;99.90
48860;DHT22;34679;51.436;-2.518;2023-07-22T09:42:56;15.80;99.90
48860;DHT22;34679;51.436;-2.518;2023-07-22T09:45:23;15.80;99.90
48860;DHT22;34679;51.436;-2.518;2023-07-22T09:47:51;15.80;99.90
48860;DHT22;34679;51.436;-2.518;2023-07-22T09:50:24;15.90;99.90
48860;DHT22;34679;51.436;-2.518;2023-07-22T09:52:58;15.90;99.90
48860;DHT22;34679;51.436;-2.518;2023-07-22T09:55:26;15.90;99.90
48860;DHT22;34679;51.436;-2.518;2023-07-22T10:00:24;15.90;99.90
48860;DHT22;34679;51.436;-2.518;2023-07-22T10:02:51;15.90;99.90
48860;DHT22;34679;51.436;-2.518;2023-07-22T10:05:18;15.80;99.90
48860;DHT22;34679;51.436;-2.518;2023-07-22T10:07:48;15.80;99.90
48860;DHT22;34679;51.436;-2.518;2023-07-22T10:10:19;15.80;99.90
48860;DHT22;34679;51.436;-2.518;2023-07-22T10:12:46;15.60;99.90
48860;DHT22;34679;51.436;-2.518;2023-07-22T10:15:13;15.70;99.90
48860;DHT22;34679;51.436;-2.518;2023-07-22T10:17:43;15.70;99.90
48860;DHT22;34679;51.436;-2.518;2023-07-22T10:20:10;15.70;99.90
48860;DHT22;34679;51.436;-2.518;2023-07-22T10:22:44;15.70;99.90
48860;DHT22;34679;51.436;-2.518;2023-07-22T10:25:15;15.60;99.90
48860;DHT22;34679;51.436;-2.518;2023-07-22T10:27:41;15.60;99.90
48860;DHT22;34679;51.436;-2.518;2023-07-22T10:30:08;15.70;99.90
48860;DHT22;34679;51.436;-2.518;2023-07-22T10:32:39;15.70;99.90
48860;DHT22;34679;51.436;-2.518;2023-07-22T10:37:55;15.70;99.90
48860;DHT22;34679;51.436;-2.518;2023-07-22T10:40:30;15.70;99.90
48860;DHT22;34679;51.436;-2.518;2023-07-22T10:43:03;15.60;99.90
48860;DHT22;34679;51.436;-2.518;2023-07-22T10:45:43;15.50;99.90
48860;DHT22;34679;51.436;-2.518;2023-07-22T10:48:12;15.40;99.90
48860;DHT22;34679;51.436;-2.518;2023-07-22T10:50:52;15.40;99.90
48860;DHT22;34679;51.436;-2.518;2023-07-22T11:01:32;15.60;99.90
48860;DHT22;34679;51.436;-2.518;2023-07-22T11:14:37;15.70;99.90
48860;DHT22;34679;51.436;-2.518;2023-07-22T11:17:04;15.80;99.90
48860;DHT22;34679;51.436;-2.518;2023-07-22T11:19:31;15.90;99.90
48860;DHT22;34679;51.436;-2.518;2023-07-22T11:21:57;15.90;99.90
48860;DHT22;34679;51.436;-2.518;2023-07-22T11:24:24;15.90;99.90
48860;DHT22;34679;51.436;-2.518;2023-07-22T11:26:50;15.90;99.90
48860;DHT22;34679;51.436;-2.518;2023-07-22T11:29:17;16.00;99.90
48860;DHT22;34679;51.436;-2.518;2023-07-22T11:31:44;16.10;99.90
48860;DHT22;34679;51.436;-2.518;2023-07-22T11:34:12;16.10;99.90
48860;DHT22;34679;51.436;-2.518;2023-07-22T11:36:38;16.20;99.90
48860;DHT22;34679;51.436;-2.518;2023-07-22T11:39:10;16.10;99.90
48860;DHT22;34679;51.436;-2.518;2023-07-22T11:41:38;16.20;99.90
48860;DHT22;34679;51.436;-2.518;2023-07-22T11:44:05;16.10;99.90
48860;DHT22;34679;51.436;-2.518;2023-07-22T11:46:35;16.10;99.90
48860;DHT22;34679;51.436;-2.518;2023-07-22T11:49:02;16.10;99.90
48860;DHT22;34679;51.436;-2.518;2023-07-22T11:51:28;16.10;99.90
48860;DHT22;34679;51.436;-2.518;2023-07-22T11:53:55;16.10;99.90
48860;DHT22;34679;51.436;-2.518;2023-07-22T11:56:23;16.10;99.90
48860;DHT22;34679;51.436;-2.518;2023-07-22T11:58:53;16.10;99.90
48860;DHT22;34679;51.436;-2.518;2023-07-22T12:01:19;16.20;99.90
48860;DHT22;34679;51.436;-2.518;2023-07-22T12:03:46;16.20;99.90
48860;DHT22;34679;51.436;-2.518;2023-07-22T12:06:13;16.30;99.90
48860;DHT22;34679;51.436;-2.518;2023-07-22T12:08:49;16.20;99.90
48860;DHT22;34679;51.436;-2.518;2023-07-22T12:11:24;16.30;99.90
48860;DHT22;34679;51.436;-2.518;2023-07-22T12:14:05;16.30;99.90
48860;DHT22;34679;51.436;-2.518;2023-07-22T12:16:41;16.30;99.90
48860;DHT22;34679;51.436;-2.518;2023-07-22T12:19:08;16.50;99.90
48860;DHT22;34679;51.436;-2.518;2023-07-22T12:21:35;16.60;99.90
48860;DHT22;34679;51.436;-2.518;2023-07-22T12:24:01;16.70;99.90
48860;DHT22;34679;51.436;-2.518;2023-07-22T12:26:27;16.80;99.90
48860;DHT22;34679;51.436;-2.518;2023-07-22T12:28:53;16.80;99.90
48860;DHT22;34679;51.436;-2.518;2023-07-22T12:31:19;16.90;99.90
48860;DHT22;34679;51.436;-2.518;2023-07-22T12:33:45;16.90;99.90
48860;DHT22;34679;51.436;-2.518;2023-07-22T12:36:11;16.90;99.90
48860;DHT22;34679;51.436;-2.518;2023-07-22T12:38:37;16.90;99.90
48860;DHT22;34679;51.436;-2.518;2023-07-22T12:41:03;16.90;99.90
48860;DHT22;34679;51.436;-2.518;2023-07-22T12:43:29;16.90;99.90
48860;DHT22;34679;51.436;-2.518;2023-07-22T12:45:56;17.00;99.90
48860;DHT22;34679;51.436;-2.518;2023-07-22T12:48:21;17.20;99.90
48860;DHT22;34679;51.436;-2.518;2023-07-22T12:50:50;17.30;99.90
48860;DHT22;34679;51.436;-2.518;2023-07-22T12:53:15;17.70;99.90
48860;DHT22;34679;51.436;-2.518;2023-07-22T12:55:41;17.90;99.90
48860;DHT22;34679;51.436;-2.518;2023-07-22T12:58:07;18.20;99.90
48860;DHT22;34679;51.436;-2.518;2023-07-22T13:00:33;18.60;99.90
48860;DHT22;34679;51.436;-2.518;2023-07-22T13:02:59;18.70;99.90
48860;DHT22;34679;51.436;-2.518;2023-07-22T13:05:24;18.90;99.90
48860;DHT22;34679;51.436;-2.518;2023-07-22T13:07:50;19.10;99.90
48860;DHT22;34679;51.436;-2.518;2023-07-22T13:10:16;19.00;99.90
48860;DHT22;34679;51.436;-2.518;2023-07-22T13:12:45;19.10;99.90
48860;DHT22;34679;51.436;-2.518;2023-07-22T13:15:10;19.20;99.90
48860;DHT22;34679;51.436;-2.518;2023-07-22T13:17:36;19.30;99.90
48860;DHT22;34679;51.436;-2.518;2023-07-22T13:20:03;19.40;99.90
48860;DHT22;34679;51.436;-2.518;2023-07-22T13:22:40;19.20;99.90
48860;DHT22;34679;51.436;-2.518;2023-07-22T13:25:06;19.10;99.90
48860;DHT22;34679;51.436;-2.518;2023-07-22T13:27:32;19.20;99.90
48860;DHT22;34679;51.436;-2.518;2023-07-22T13:29:59;19.00;99.90
48860;DHT22;34679;51.436;-2.518;2023-07-22T13:32:26;18.90;99.90
48860;DHT22;34679;51.436;-2.518;2023-07-22T13:34:52;18.90;99.90
48860;DHT22;34679;51.436;-2.518;2023-07-22T13:37:17;19.00;99.90
48860;DHT22;34679;51.436;-2.518;2023-07-22T13:39:43;18.90;99.90
48860;DHT22;34679;51.436;-2.518;2023-07-22T13:42:09;19.00;99.90
48860;DHT22;34679;51.436;-2.518;2023-07-22T13:44:34;19.10;99.90
48860;DHT22;34679;51.436;-2.518;2023-07-22T13:47:00;19.20;99.90
48860;DHT22;34679;51.436;-2.518;2023-07-22T13:49:26;19.10;99.90
48860;DHT22;34679;51.436;-2.518;2023-07-22T13:51:51;19.10;99.90
48860;DHT22;34679;51.436;-2.518;2023-07-22T13:54:17;19.00;99.90
48860;DHT22;34679;51.436;-2.518;2023-07-22T13:56:43;18.70;99.90
48860;DHT22;34679;51.436;-2.518;2023-07-22T13:59:18;18.80;99.90
48860;DHT22;34679;51.436;-2.518;2023-07-22T14:01:44;18.50;99.90
48860;DHT22;34679;51.436;-2.518;2023-07-22T14:04:09;18.50;99.90
48860;DHT22;34679;51.436;-2.518;2023-07-22T14:06:35;18.40;99.90
48860;DHT22;34679;51.436;-2.518;2023-07-22T14:09:01;18.40;99.90
48860;DHT22;34679;51.436;-2.518;2023-07-22T14:11:27;18.40;99.90
48860;DHT22;34679;51.436;-2.518;2023-07-22T14:13:52;18.50;99.90
48860;DHT22;34679;51.436;-2.518;2023-07-22T14:16:18;18.50;99.90
48860;DHT22;34679;51.436;-2.518;2023-07-22T14:18:44;18.40;99.90
48860;DHT22;34679;51.436;-2.518;2023-07-22T14:21:10;18.50;99.90
48860;DHT22;34679;51.436;-2.518;2023-07-22T14:23:37;18.50;99.90
48860;DHT22;34679;51.436;-2.518;2023-07-22T14:26:02;18.60;99.90
48860;DHT22;34679;51.436;-2.518;2023-07-22T14:28:28;18.50;99.90
48860;DHT22;34679;51.436;-2.518;2023-07-22T14:30:54;18.50;99.90
48860;DHT22;34679;51.436;-2.518;2023-07-22T14:33:19;18.50;99.90
48860;DHT22;34679;51.436;-2.518;2023-07-22T14:35:45;18.50;99.90
48860;DHT22;34679;51.436;-2.518;2023-07-22T14:38:11;18.40;99.90
48860;DHT22;34679;51.436;-2.518;2023-07-22T14:40:37;18.50;99.90
48860;DHT22;34679;51.436;-2.518;2023-07-22T14:43:03;18.50;99.90
48860;DHT22;34679;51.436;-2.518;2023-07-22T14:45:29;18.50;99.90
48860;DHT22;34679;51.436;-2.518;2023-07-22T14:47:55;18.40;99.90
48860;DHT22;34679;51.436;-2.518;2023-07-22T14:50:21;18.40;99.90
48860;DHT22;34679;51.436;-2.518;2023-07-22T14:52:46;18.30;99.90
48860;DHT22;34679;51.436;-2.518;2023-07-22T14:55:12;18.30;99.90
48860;DHT22;34679;51.436;-2.518;2023-07-22T14:57:38;18.30;99.90
48860;DHT22;34679;51.436;-2.518;2023-07-22T15:00:05;18.30;99.90
48860;DHT22;34679;51.436;-2.518;2023-07-22T15:02:31;18.30;99.90
48860;DHT22;34679;51.436;-2.518;2023-07-22T15:04:57;18.40;99.90
48860;DHT22;34679;51.436;-2.518;2023-07-22T15:07:23;18.40;99.90
48860;DHT22;34679;51.436;-2.518;2023-07-22T15:09:48;18.50;99.90
48860;DHT22;34679;51.436;-2.518;2023-07-22T15:12:14;18.60;99.90
48860;DHT22;34679;51.436;-2.518;2023-07-22T15:14:40;18.90;99.90
48860;DHT22;34679;51.436;-2.518;2023-07-22T15:17:06;19.00;99.90
48860;DHT22;34679;51.436;-2.518;2023-07-22T15:19:31;19.10;99.90
48860;DHT22;34679;51.436;-2.518;2023-07-22T15:21:57;19.20;99.90
48860;DHT22;34679;51.436;-2.518;2023-07-22T15:24:23;19.20;99.90
48860;DHT22;34679;51.436;-2.518;2023-07-22T15:26:48;19.20;99.90
48860;DHT22;34679;51.436;-2.518;2023-07-22T15:29:14;19.20;99.90
48860;DHT22;34679;51.436;-2.518;2023-07-22T15:31:40;19.10;99.90
48860;DHT22;34679;51.436;-2.518;2023-07-22T15:34:05;19.10;99.90
48860;DHT22;34679;51.436;-2.518;2023-07-22T15:36:31;19.30;99.90
48860;DHT22;34679;51.436;-2.518;2023-07-22T15:38:57;19.60;99.90